createdAt,value
2023-05-17T00:01:16.404Z,96681.45431836005
2023-05-17T00:04:16.897Z,96680.5473699946
2023-05-17T00:07:16.706Z,96680.0919311851
2023-05-17T00:11:15.597Z,96683.58668136755
2023-05-17T00:14:16.316Z,96686.54806996995
2023-05-17T00:17:16.753Z,96681.0262722753
2023-05-17T00:21:16.098Z,96680.76626317811
2023-05-17T00:24:16.516Z,96683.52624190868
2023-05-17T00:27:16.502Z,96682.28295224327
2023-05-17T00:31:16.118Z,96679.00503796831
2023-05-17T00:34:16.712Z,96676.97603410423
2023-05-17T00:37:16.436Z,96681.32877573381
2023-05-17T00:41:15.520Z,96676.65878421589
2023-05-17T00:44:16.101Z,96673.34436327852
2023-05-17T00:47:15.886Z,96674.87229482984
2023-05-17T00:51:18.344Z,96676.69522771655
2023-05-17T00:54:16.980Z,96678.7532273677
2023-05-17T00:57:16.944Z,96678.58425749383
2023-05-17T01:01:16.812Z,96677.49214638781
2023-05-17T01:04:16.768Z,96677.2969934067
2023-05-17T01:07:17.683Z,96682.87038080118
2023-05-17T01:11:31.127Z,96685.72510516616
2023-05-17T01:14:31.233Z,96681.31386052843
2023-05-17T01:17:21.993Z,96686.0903240882
2023-05-17T01:21:34.579Z,96689.48754725541
2023-05-17T01:24:26.443Z,96685.62553677306
2023-05-17T01:27:18.073Z,96691.31675822799
2023-05-17T01:31:16.625Z,96694.53598194216
2023-05-17T01:34:24.866Z,96697.89746123327
2023-05-17T01:37:16.503Z,96701.01561134339
2023-05-17T01:41:26.036Z,96697.6959177325
2023-05-17T01:44:23.625Z,96698.35628273775
2023-05-17T01:47:26.967Z,96695.9091131434
2023-05-17T01:51:18.709Z,96700.5250493376
2023-05-17T01:54:22.131Z,96705.46093245177
2023-05-17T01:57:23.634Z,96699.27311964039
2023-05-17T02:01:17.804Z,96698.88370574404
2023-05-17T02:04:17.658Z,96701.72699013374
2023-05-17T02:07:16.392Z,96700.1692442585
2023-05-17T02:11:16.694Z,96702.78607920195
2023-05-17T02:14:16.656Z,96702.04170664072
2023-05-17T02:17:17.614Z,96703.88686665182
2023-05-17T02:21:18.240Z,96702.92982546322
2023-05-17T02:24:16.083Z,96702.94708263589
2023-05-17T02:27:16.196Z,96701.0415746097
2023-05-17T02:31:15.806Z,96706.6636854812
2023-05-17T02:34:16.197Z,96710.45491157878
2023-05-17T02:37:16.418Z,96712.85192532417
2023-05-17T02:41:16.258Z,96711.98667797269
2023-05-17T02:44:16.730Z,96715.2205892692
2023-05-17T02:47:16.703Z,96713.26493119693
2023-05-17T02:51:16.405Z,96715.68697218185
2023-05-17T02:54:16.674Z,96714.8713254549
2023-05-17T02:57:16.847Z,96720.97605799395
2023-05-17T03:01:15.720Z,96724.53063705805
2023-05-17T03:04:15.798Z,96722.28586621402
2023-05-17T03:07:16.130Z,96727.53340225691
2023-05-17T03:11:15.719Z,96729.89543910591
2023-05-17T03:14:16.482Z,96729.28361333435
2023-05-17T03:17:15.888Z,96730.6125947049
2023-05-17T03:21:16.162Z,96731.01953122296
2023-05-17T03:24:16.569Z,96738.61744665213
2023-05-17T03:27:16.840Z,96741.940287124
2023-05-17T03:31:17.475Z,96749.77195021498
2023-05-17T03:34:16.365Z,96752.56655895096
2023-05-17T03:37:16.393Z,96753.14980478649
2023-05-17T03:41:15.604Z,96757.35495954572
2023-05-17T03:44:15.869Z,96764.37657387572
2023-05-17T03:47:15.915Z,96770.25031397214
2023-05-17T03:51:16.678Z,96770.98751164525
2023-05-17T03:54:16.413Z,96771.25747318109
2023-05-17T03:57:16.657Z,96777.45195199412
2023-05-17T04:01:16.355Z,96782.5742024247
2023-05-17T04:04:16.540Z,96789.41196644588
2023-05-17T04:07:16.712Z,96786.1833818219
2023-05-17T04:11:16.119Z,96795.12903351818
2023-05-17T04:14:17.468Z,96800.82274181535
2023-05-17T04:17:16.867Z,96803.4802277636
2023-05-17T04:31:16.123Z,96813.51914269394
2023-05-17T04:34:16.675Z,96814.52173043262
2023-05-17T04:37:16.866Z,96822.76121635179
2023-05-17T04:41:16.409Z,96831.20110378896
2023-05-17T04:44:18.545Z,96830.58481080504
2023-05-17T04:47:17.492Z,96835.9767943337
2023-05-17T04:51:15.842Z,96838.88686920714
2023-05-17T04:54:16.091Z,96842.36302588931
2023-05-17T04:57:16.289Z,96843.7606737532
2023-05-17T05:01:17.279Z,96852.87157418819
2023-05-17T05:04:16.899Z,96857.92180119763
2023-05-17T05:07:16.878Z,96861.04048900446
2023-05-17T05:11:15.604Z,96863.791861016
2023-05-17T05:14:15.948Z,96866.78063464157
2023-05-17T05:17:15.968Z,96868.8053872677
2023-05-17T05:21:16.217Z,96864.33865963132
2023-05-17T05:24:16.586Z,96869.64787454363
2023-05-17T05:27:16.548Z,96868.94447889144
2023-05-17T05:31:16.309Z,96872.3397859019
2023-05-17T05:34:16.600Z,96873.26353460486
2023-05-17T05:37:18.676Z,96880.61074845408
2023-05-17T05:41:15.849Z,96882.50833931884
2023-05-17T05:44:16.391Z,96883.59362228363
2023-05-17T05:47:16.316Z,96885.76270590037
2023-05-17T05:51:16.206Z,96894.79869774767
2023-05-17T05:54:17.214Z,96894.7928081482
2023-05-17T05:57:16.667Z,96898.02401821512
2023-05-17T06:01:16.305Z,96902.10181744336
2023-05-17T06:04:16.309Z,96906.34715375715
2023-05-17T06:07:17.664Z,96908.60257675745
2023-05-17T06:11:17.546Z,96917.90624969586
2023-05-17T06:14:16.497Z,96918.53979154203
2023-05-17T06:17:16.531Z,96923.31200318865
2023-05-17T06:21:17.676Z,96922.9043854581
2023-05-17T06:24:16.995Z,96927.4131232761
2023-05-17T06:27:16.856Z,96929.438157935
2023-05-17T06:31:17.187Z,96932.48750916959
2023-05-17T06:34:16.477Z,96938.95122123236
2023-05-17T06:37:17.570Z,96940.69036720434
2023-05-17T06:41:16.505Z,96944.4708007577
2023-05-17T06:44:16.879Z,96949.48255829091
2023-05-17T06:47:18.470Z,96956.39281055308
2023-05-17T06:51:15.974Z,96959.58453167231
2023-05-17T06:54:16.154Z,96961.73147911459
2023-05-17T06:57:16.070Z,96965.60790226942
2023-05-17T07:01:16.854Z,96971.33472009473
2023-05-17T07:04:16.680Z,96974.8303346394
2023-05-17T07:07:16.515Z,96979.21862151916
2023-05-17T07:11:16.022Z,96983.83368097374
2023-05-17T07:14:16.357Z,96985.12424697878
2023-05-17T07:17:16.291Z,96984.19407256527
2023-05-17T07:21:16.227Z,96990.97458085106
2023-05-17T07:24:16.665Z,96991.30482673287
2023-05-17T07:27:16.509Z,96990.96957023
2023-05-17T07:31:16.745Z,96990.36317940016
2023-05-17T07:34:16.195Z,96992.63248710346
2023-05-17T07:37:16.251Z,96995.49423681754
2023-05-17T07:41:17.121Z,97001.20411138871
2023-05-17T07:44:16.228Z,97000.99452008412
2023-05-17T07:47:16.366Z,97001.38699687483
2023-05-17T07:51:16.566Z,97008.6990593845
2023-05-17T07:54:22.424Z,97008.61639390429
2023-05-17T07:57:16.708Z,97013.65649046632
2023-05-17T08:01:16.131Z,97013.853369736
2023-05-17T08:04:16.860Z,97018.88418236244
2023-05-17T08:07:16.427Z,97020.40078635521
2023-05-17T08:11:16.781Z,97022.28606464321
2023-05-17T08:14:17.508Z,97025.6101466685
2023-05-17T08:17:16.933Z,97030.63062077852
2023-05-17T08:21:16.226Z,97034.27125606063
2023-05-17T08:24:17.699Z,97037.61556315978
2023-05-17T08:27:16.897Z,97049.0778796472
2023-05-17T08:31:16.520Z,97042.82425550476
2023-05-17T08:34:17.722Z,97045.8173271054
2023-05-17T08:37:17.283Z,97051.80655921639
2023-05-17T08:41:16.241Z,97051.12708186977
2023-05-17T08:44:16.847Z,97057.21013329054
2023-05-17T08:47:28.826Z,97064.03900990094
2023-05-17T08:51:18.242Z,97066.48612496526
2023-05-17T08:54:15.773Z,97060.020233991
2023-05-17T08:57:16.360Z,97068.5465135363
2023-05-17T09:01:15.994Z,97075.21370176047
2023-05-17T09:04:16.594Z,97065.37563566932
2023-05-17T09:07:17.443Z,97071.66004832617
2023-05-17T09:11:24.387Z,97075.11214026321
2023-05-17T09:14:17.841Z,97076.22478679453
2023-05-17T09:17:19.417Z,97080.72826346477
2023-05-17T09:21:16.627Z,97080.28682689385
2023-05-17T09:24:18.438Z,97085.50314795892
2023-05-17T09:27:17.809Z,97088.90279500559
2023-05-17T09:31:16.667Z,97096.7895843615
2023-05-17T09:34:18.687Z,97097.22002507567
2023-05-17T09:37:18.110Z,97102.82079135484
2023-05-17T09:41:15.811Z,97107.6174600152
2023-05-17T09:44:16.480Z,97112.34820331547
2023-05-17T09:47:26.630Z,97117.29774640995
2023-05-17T09:51:16.429Z,97130.50758970622
2023-05-17T09:54:18.128Z,97127.57223970487
2023-05-17T09:57:17.443Z,97130.67176087451
2023-05-17T10:01:16.977Z,97126.46582105875
2023-05-17T10:04:22.489Z,97125.41148259108
2023-05-17T10:07:19.043Z,97125.90532103303
2023-05-17T10:11:21.093Z,97128.65784590639
2023-05-17T10:14:23.192Z,97131.07687067994
2023-05-17T10:17:18.337Z,97131.34840158327
2023-05-17T10:21:16.579Z,97126.87732500299
2023-05-17T10:24:16.683Z,97132.16238421568
2023-05-17T10:27:16.644Z,97125.73688997437
2023-05-17T10:31:16.670Z,97136.18053967714
2023-05-17T10:34:18.653Z,97133.99389978894
2023-05-17T10:37:18.425Z,97134.8786784554
2023-05-17T10:41:17.513Z,97139.29397273595
2023-05-17T10:44:17.755Z,97140.50953839281
2023-05-17T10:47:17.367Z,97141.46291278016
2023-05-17T10:51:22.882Z,97150.45273817475
2023-05-17T10:54:18.819Z,97144.09182862358
2023-05-17T10:57:19.748Z,97144.66541459008
2023-05-17T11:01:50.166Z,97144.08671662577
2023-05-17T11:04:25.155Z,97145.81629870195
2023-05-17T11:07:27.018Z,97145.91862144906
2023-05-17T11:11:18.497Z,97148.21242587619
2023-05-17T11:14:18.787Z,97141.25679600683
2023-05-17T11:17:19.822Z,97138.59085525257
2023-05-17T11:21:16.407Z,97132.67938973088
2023-05-17T11:24:24.583Z,97130.968769234
2023-05-17T11:27:18.060Z,97136.10880206918
2023-05-17T11:31:16.866Z,97134.50248392284
2023-05-17T11:34:17.740Z,97127.03249624255
2023-05-17T11:37:25.165Z,97125.13326618094
2023-05-17T11:44:22.790Z,97127.44106962971
2023-05-17T11:47:16.963Z,97123.91555238681
2023-05-17T11:51:17.105Z,97122.74442118761
2023-05-17T11:54:17.325Z,97125.36270742645
2023-05-17T11:57:18.760Z,97126.58470240416
2023-05-17T12:01:15.791Z,97135.71888185435
2023-05-17T12:04:23.721Z,97129.3963328282
2023-05-17T12:07:16.213Z,97134.86705789194
2023-05-17T12:11:17.589Z,97140.2155082819
2023-05-17T12:14:17.818Z,97142.69353161732
2023-05-17T12:17:26.172Z,97147.53464237468
2023-05-17T12:21:17.325Z,97146.76870193699
2023-05-17T12:24:17.286Z,97148.78360010003
2023-05-17T12:27:24.838Z,97150.60279083256
2023-05-17T12:31:17.481Z,97153.44725755714
2023-05-17T12:34:17.720Z,97173.34949286013
2023-05-17T12:37:16.093Z,97182.95179246608
2023-05-17T12:41:17.520Z,97201.94482894863
2023-05-17T12:44:17.095Z,97210.95780231938
2023-05-17T12:47:16.509Z,97212.6981624376
2023-05-17T12:51:17.482Z,97211.48435383607
2023-05-17T12:54:25.895Z,97218.40564629373
2023-05-17T12:57:17.297Z,97218.92208593295
2023-05-17T13:01:15.877Z,97225.56023594798
2023-05-17T13:04:18.713Z,97210.1298156672
2023-05-17T13:07:21.973Z,97213.93731437215
2023-05-17T13:11:16.454Z,97212.03936105651
2023-05-17T13:14:33.180Z,97222.10646989894
2023-05-17T13:17:18.251Z,97219.01325990302
2023-05-17T13:21:17.737Z,97225.95216387331
2023-05-17T13:24:16.226Z,97238.23518674311
2023-05-17T13:27:17.124Z,97239.75604293821
2023-05-17T13:31:15.950Z,97232.68070126991
2023-05-17T13:34:16.905Z,97238.40924859948
2023-05-17T13:37:16.121Z,97235.22491146711
2023-05-17T13:41:16.370Z,97239.84260008243
2023-05-17T13:44:16.202Z,97243.55418250516
2023-05-17T13:47:16.587Z,97238.3448045357
2023-05-17T13:51:16.592Z,97241.56826664353
2023-05-17T13:54:17.324Z,97245.9401529771
2023-05-17T13:57:17.084Z,97246.80739358583
2023-05-17T14:01:15.992Z,97252.68224777802
2023-05-17T14:04:16.261Z,97256.42757264314
2023-05-17T14:07:15.974Z,97262.3197123989
2023-05-17T14:11:15.577Z,97267.6914458943
2023-05-17T14:14:16.056Z,97268.72716342771
2023-05-17T14:17:16.109Z,97268.25187500118
2023-05-17T14:21:16.037Z,97267.04579755785
2023-05-17T14:24:16.391Z,97266.144580832
2023-05-17T14:27:16.741Z,97264.00594597575
2023-05-17T14:31:15.659Z,97264.74122998101
2023-05-17T14:34:16.054Z,97269.1126916137
2023-05-17T14:37:16.169Z,97258.54058412902
2023-05-17T14:41:15.624Z,97266.75436920843
2023-05-17T14:44:16.306Z,97267.04134033939
2023-05-17T14:47:16.480Z,97268.33246789819
2023-05-17T14:51:16.890Z,97278.98616409922
2023-05-17T14:54:17.396Z,97284.07995805766
2023-05-17T14:57:16.818Z,97285.72110548241
2023-05-17T15:01:17.525Z,97292.16021951765
2023-05-17T15:04:17.607Z,97290.30856959631
2023-05-17T15:07:16.837Z,97290.33534521316
2023-05-17T15:11:16.088Z,97297.478007205
2023-05-17T15:14:21.256Z,97294.8819190863
2023-05-17T15:17:16.740Z,97296.846182915
2023-05-17T15:21:17.648Z,97300.42065804978
2023-05-17T15:24:17.956Z,97300.3443728415
2023-05-17T15:27:17.203Z,97305.10597594143
2023-05-17T15:31:16.089Z,97308.77071326195
2023-05-17T15:34:16.463Z,97304.86370679995
2023-05-17T15:37:16.561Z,97309.51691548756
2023-05-17T15:41:17.498Z,97309.18514139003
2023-05-17T15:44:16.929Z,97314.11796419972
2023-05-17T15:47:16.803Z,97315.32773071632
2023-05-17T15:51:15.946Z,97319.84010822912
2023-05-17T15:54:16.101Z,97320.78218427276
2023-05-17T15:57:16.110Z,97318.06090404537
2023-05-17T16:01:16.148Z,97325.04631541032
2023-05-17T16:04:16.673Z,97327.75937595978
2023-05-17T16:07:16.663Z,97328.38746943255
2023-05-17T16:11:15.989Z,97334.65058347819
2023-05-17T16:14:17.429Z,97334.27774058745
2023-05-17T16:17:16.539Z,97339.74964641409
2023-05-17T16:21:16.357Z,97340.1500208479
2023-05-17T16:24:17.359Z,97339.72615347778
2023-05-17T16:27:16.796Z,97340.93344407654
2023-05-17T16:31:15.673Z,97343.40855106439
2023-05-17T16:34:15.864Z,97344.94164575124
2023-05-17T16:37:15.935Z,97345.51235403899
2023-05-17T16:41:16.170Z,97350.71324473461
2023-05-17T16:44:16.786Z,97353.58698470413
2023-05-17T16:47:16.744Z,97356.66764152297
2023-05-17T16:51:16.249Z,97356.32857801793
2023-05-17T16:54:16.438Z,97360.09662746011
2023-05-17T16:57:16.520Z,97367.37052804237
2023-05-17T17:01:16.436Z,97371.16601092357
2023-05-17T17:04:16.981Z,97378.61668538368
2023-05-17T17:07:16.082Z,97381.9925321448
2023-05-17T17:11:18.778Z,97391.87589325152
2023-05-17T17:14:16.726Z,97396.08574032105
2023-05-17T17:17:17.461Z,97399.71544525109
2023-05-17T17:21:16.546Z,97400.61612137409
2023-05-17T17:24:16.492Z,97400.84547924406
2023-05-17T17:27:16.309Z,97402.87591251977
2023-05-17T17:31:16.456Z,97407.2537617166
2023-05-17T17:34:16.037Z,97411.1476381955
2023-05-17T17:37:15.914Z,97415.50130513468
2023-05-17T17:41:16.540Z,97417.0623560153
2023-05-17T17:44:16.751Z,97421.50720241011
2023-05-17T17:47:16.775Z,97430.63700134997
2023-05-17T17:51:16.203Z,97436.3816019932
2023-05-17T17:54:16.245Z,97436.68312131969
2023-05-17T17:57:18.867Z,97438.51622207758
2023-05-17T18:01:15.925Z,97443.67862210971
2023-05-17T18:04:16.224Z,97448.9468397666
2023-05-17T18:07:17.052Z,97452.09020610941
2023-05-17T18:11:16.397Z,97459.3852632367
2023-05-17T18:14:16.533Z,97464.39152614234
2023-05-17T18:17:16.300Z,97461.25973799531
2023-05-17T18:21:16.428Z,97465.56913105583
2023-05-17T18:24:16.798Z,97465.18133729932
2023-05-17T18:27:17.102Z,97467.42031917885
2023-05-17T18:31:18.370Z,97470.25885340272
2023-05-17T18:34:17.853Z,97468.46930590655
2023-05-17T18:37:16.949Z,97467.37406537069
2023-05-17T18:41:15.941Z,97476.6159899912
2023-05-17T18:44:17.971Z,97475.11815556405
2023-05-17T18:47:16.459Z,97482.74668599671
2023-05-17T18:51:16.313Z,97486.04230249564
2023-05-17T18:54:16.614Z,97488.77494345809
2023-05-17T18:57:16.634Z,97492.55677629847
2023-05-17T19:01:16.477Z,97501.96666514083
2023-05-17T19:04:16.319Z,97512.57106582736
2023-05-17T19:07:16.319Z,97519.90214822987
2023-05-17T19:11:15.878Z,97523.13295785469
2023-05-17T19:14:16.158Z,97531.16362239851
2023-05-17T19:17:16.095Z,97532.99566583632
2023-05-17T19:21:16.520Z,97534.45497609949
2023-05-17T19:24:16.842Z,97544.01860930925
2023-05-17T19:27:19.984Z,97545.379097365
2023-05-17T19:31:16.418Z,97550.37999781656
2023-05-17T19:34:16.461Z,97554.5252607318
2023-05-17T19:37:17.395Z,97556.17385693792
2023-05-17T19:41:15.822Z,97557.77129373861
2023-05-17T19:44:16.254Z,97562.47145366884
2023-05-17T19:47:17.384Z,97571.84401378485
2023-05-17T19:51:16.297Z,97577.32171859285
2023-05-17T19:54:16.498Z,97580.556161057
2023-05-17T19:57:16.619Z,97586.52289705205
2023-05-17T20:11:16.705Z,97608.23565923523
2023-05-17T20:14:16.912Z,97610.1765667066
2023-05-17T20:17:16.842Z,97610.77646578103
2023-05-17T20:21:20.078Z,97615.52721537353
2023-05-17T20:24:16.905Z,97618.03670164231
2023-05-17T20:27:16.942Z,97619.1733240356
2023-05-17T20:31:16.255Z,97619.12783960714
2023-05-17T20:34:16.166Z,97625.89435547864
2023-05-17T20:37:16.464Z,97634.42622590486
2023-05-17T20:41:16.050Z,97640.35673541967
2023-05-17T20:44:19.700Z,97640.54590003053
2023-05-17T20:47:16.594Z,97645.59253133017
2023-05-17T20:51:17.746Z,97646.00207780767
2023-05-17T20:54:16.991Z,97649.83393141389
2023-05-17T20:57:17.460Z,97645.63921943837
2023-05-17T21:01:16.207Z,97646.64732865113
2023-05-17T21:04:17.427Z,97646.25262812879
2023-05-17T21:07:17.452Z,97651.78630410647
2023-05-17T21:11:21.659Z,97657.24068260475
2023-05-17T21:14:16.269Z,97651.24955597805
2023-05-17T21:17:16.869Z,97647.10124286017
2023-05-17T21:21:16.279Z,97647.02082103235
2023-05-17T21:24:16.328Z,97644.10364354104
2023-05-17T21:27:16.286Z,97644.60508560397
2023-05-17T21:31:16.628Z,97649.80522383685
2023-05-17T21:34:16.816Z,97654.20341931068
2023-05-17T21:37:17.037Z,97653.96214846233
2023-05-17T21:41:16.387Z,97657.80537867454
2023-05-17T21:44:16.691Z,97657.3922016276
2023-05-17T21:47:16.553Z,97658.9834571202
2023-05-17T21:51:16.677Z,97658.83720381622
2023-05-17T21:54:16.162Z,97662.01722127607
2023-05-17T21:57:16.207Z,97664.11161119874
2023-05-17T22:01:20.161Z,97671.32646212657
2023-05-17T22:04:16.616Z,97676.00414464809
2023-05-17T22:07:16.736Z,97676.34587136179
2023-05-17T22:11:18.229Z,97683.59301095379
2023-05-17T22:14:16.470Z,97678.38788157566
2023-05-17T22:17:16.933Z,97674.28363747828
2023-05-17T22:21:16.922Z,97673.43943347769
2023-05-17T22:24:17.143Z,97674.00328933397
2023-05-17T22:27:16.945Z,97677.15540130364
2023-05-17T22:31:18.608Z,97673.80498529164
2023-05-17T22:34:17.180Z,97668.86908087763
2023-05-17T22:37:17.696Z,97671.7462342616
2023-05-17T22:41:16.559Z,97671.09973248316
2023-05-17T22:44:17.022Z,97668.2540023934
2023-05-17T22:47:16.928Z,97664.2312734165
2023-05-17T22:51:18.705Z,97665.97377020292
2023-05-17T22:54:16.876Z,97669.10099035797
2023-05-17T22:57:17.129Z,97671.83104533526
2023-05-17T23:01:15.599Z,97674.24909004301
2023-05-17T23:04:16.178Z,97673.69441139775
2023-05-17T23:07:16.485Z,97667.72134126614
2023-05-17T23:11:15.661Z,97663.4987614757
2023-05-17T23:14:16.507Z,97662.07664488745
2023-05-17T23:17:15.942Z,97662.59375218624
2023-05-17T23:21:15.916Z,97666.00984646878
2023-05-17T23:24:16.257Z,97667.76478118786
2023-05-17T23:27:18.499Z,97671.65959399524
2023-05-17T23:31:16.679Z,97675.37747902583
2023-05-17T23:34:16.609Z,97677.31082992356
2023-05-17T23:37:16.878Z,97675.80490603225
2023-05-17T23:41:18.191Z,97670.70979112401
2023-05-17T23:44:18.058Z,97667.5483509436
2023-05-17T23:47:16.118Z,97668.2597186573
2023-05-17T23:51:17.755Z,97665.53123062132
2023-05-17T23:54:16.262Z,97667.980939204
2023-05-17T23:57:16.316Z,97665.81693779468
